createdAt,value
2023-04-19T06:22:54.334Z,73.6
2023-04-19T06:28:29.192Z,74.3
2023-04-19T06:34:24.875Z,73.4
2023-04-19T06:39:59.890Z,74.2
2023-04-19T06:45:36.210Z,74.1
2023-04-19T06:51:12.115Z,73.6
2023-04-19T06:56:56.533Z,73.9
2023-04-19T07:02:36.009Z,73.4
2023-04-19T07:08:16.029Z,72.9
2023-04-19T07:13:55.234Z,72.3
2023-04-19T07:19:34.642Z,72.2
2023-04-19T07:25:15.041Z,71.1
2023-04-19T07:30:53.601Z,70
2023-04-19T07:36:53.117Z,68.8
2023-04-19T07:42:28.701Z,64.3
2023-04-19T07:48:05.511Z,66.6
2023-04-19T07:53:42.589Z,65.7
2023-04-19T07:59:19.181Z,67.9
2023-04-19T08:04:55.499Z,67.1
2023-04-19T08:10:34.501Z,65.7
2023-04-19T08:16:41.740Z,62.6
2023-04-19T08:23:25.930Z,61.6
2023-04-19T08:29:32.634Z,64.3
2023-04-19T08:35:08.104Z,62.7
2023-04-19T08:40:45.205Z,60.1
2023-04-19T08:46:22.541Z,57.1
2023-04-19T08:53:20.676Z,57.3
2023-04-19T08:59:19.636Z,56.4
2023-04-19T09:04:59.654Z,55
2023-04-19T09:10:38.963Z,54.3
2023-04-19T09:16:16.962Z,56.5
2023-04-19T09:21:56.526Z,54.1
2023-04-19T09:27:32.313Z,54.8
2023-04-19T09:33:09.020Z,52.4
2023-04-19T09:38:45.863Z,52.4
2023-04-19T09:51:12.073Z,52.2
2023-04-19T09:56:51.460Z,48.5
2023-04-19T10:02:36.336Z,51.2
2023-04-19T10:08:23.782Z,51.8
2023-04-19T10:14:00.501Z,50.3
2023-04-19T10:19:36.374Z,49
2023-04-19T10:25:11.684Z,49.3
2023-04-19T10:30:58.370Z,48.5
2023-04-19T10:36:47.418Z,46.8
2023-04-19T10:42:23.466Z,47
2023-04-19T10:48:00.720Z,43.7
2023-04-19T10:53:39.606Z,44.3
2023-04-19T10:59:16.250Z,41.6
2023-04-19T11:04:53.363Z,43.3
2023-04-19T11:10:29.894Z,38.9
2023-04-19T11:16:06.674Z,39.3
2023-04-19T11:21:45.253Z,46.2
2023-04-19T11:27:21.140Z,42.5
2023-04-19T11:32:56.867Z,43.6
2023-04-19T11:39:00.728Z,42.2
2023-04-19T11:44:35.774Z,44.2
2023-04-19T11:50:12.192Z,43.9
2023-04-19T11:55:48.241Z,40.7
2023-04-19T12:01:24.575Z,41.2
2023-04-19T12:07:01.760Z,43.2
2023-04-19T12:12:37.643Z,43
2023-04-19T12:18:13.434Z,42.7
2023-04-19T12:23:49.895Z,39.9
2023-04-19T12:29:26.805Z,41.5
2023-04-19T12:35:02.892Z,38.6
2023-04-19T12:40:39.056Z,37.2
2023-04-19T12:46:15.062Z,37
2023-04-19T12:51:50.806Z,36.5
2023-04-19T12:57:32.042Z,33.4
2023-04-19T13:03:08.049Z,33.3
2023-04-19T13:08:48.603Z,30.3
2023-04-19T13:14:26.601Z,29.9
2023-04-19T13:20:27.996Z,29.9
2023-04-19T13:26:01.978Z,21.8
2023-04-19T13:31:38.614Z,16.6
2023-04-19T13:37:14.533Z,14.9
2023-04-19T13:42:50.881Z,12.3
2023-04-19T13:48:27.464Z,11.3
2023-04-19T13:54:04.286Z,12
2023-04-19T13:59:40.051Z,12.6
2023-04-19T14:05:18.336Z,24
2023-04-19T14:10:54.330Z,25.4
2023-04-19T14:16:29.997Z,24.1
2023-04-19T14:22:06.587Z,23.8
2023-04-19T14:27:43.273Z,27.4
2023-04-19T14:33:19.431Z,26.7
2023-04-19T14:38:55.767Z,26.6
2023-04-19T14:44:34.824Z,26.2
2023-04-19T14:50:12.091Z,26.4
2023-04-19T14:55:47.467Z,25.3
2023-04-19T15:01:24.211Z,25.4
2023-04-19T15:06:59.946Z,23.7
2023-04-19T15:12:35.717Z,24.9
2023-04-19T15:18:12.043Z,25.4
2023-04-19T15:23:49.053Z,24.2
2023-04-19T15:29:23.878Z,26.1
2023-04-19T15:34:58.996Z,26.9
2023-04-19T15:40:36.654Z,27.2
2023-04-19T15:46:12.220Z,28.9
2023-04-19T15:51:48.451Z,30.2
2023-04-19T15:57:23.413Z,29.7
2023-04-19T16:02:59.338Z,27.1
2023-04-19T16:08:37.108Z,24
2023-04-19T16:14:12.904Z,21.7
2023-04-19T16:19:48.371Z,24.7
2023-04-19T16:25:23.823Z,26.5
2023-04-19T16:30:59.304Z,26.8
2023-04-19T16:36:34.616Z,26.3
2023-04-19T16:42:12.333Z,20.8
2023-04-19T16:47:50.363Z,20.9
2023-04-19T16:53:26.917Z,22.5
2023-04-19T16:59:02.807Z,25.6
2023-04-19T17:04:38.986Z,29.6
2023-04-19T17:10:16.515Z,30
2023-04-19T17:15:52.498Z,31.7
2023-04-19T17:21:49.879Z,32.1
2023-04-19T17:27:23.307Z,32.6
2023-04-19T17:32:58.797Z,33.6
2023-04-19T17:38:35.110Z,33.2
2023-04-19T17:44:11.221Z,33.8
2023-04-19T17:49:48.502Z,35.2
2023-04-19T17:55:23.850Z,35.8
2023-04-19T18:00:59.795Z,35.5
2023-04-19T18:06:35.103Z,37.6
2023-04-19T18:12:10.188Z,38.7
2023-04-19T18:18:03.788Z,37
2023-04-19T18:24:28.255Z,37.9
2023-04-19T18:30:10.098Z,37.8
2023-04-19T18:35:49.693Z,39.9
2023-04-19T18:41:24.834Z,40.6
2023-04-19T18:47:00.548Z,43.6
2023-04-19T18:52:36.704Z,42.3
2023-04-19T18:58:12.773Z,42.9
2023-04-19T19:04:39.058Z,45.1
2023-04-19T19:11:37.100Z,44.5
2023-04-19T19:17:32.782Z,45.2
2023-04-19T19:23:08.575Z,44.9
2023-04-19T19:28:47.742Z,47.3
2023-04-19T19:35:07.442Z,48.4
2023-04-19T19:48:14.527Z,49.3
2023-04-19T19:54:17.479Z,51.2
2023-04-19T20:00:00.349Z,50.1
2023-04-19T20:07:42.215Z,46.7
2023-04-19T20:13:43.736Z,49
2023-04-19T20:19:29.046Z,51.5
2023-04-19T20:25:04.533Z,53.5
2023-04-19T20:30:40.014Z,52.3
2023-04-19T20:36:25.570Z,55.7
2023-04-19T20:42:04.032Z,55.7
2023-04-19T20:47:41.050Z,52.1
2023-04-19T20:53:21.076Z,52.6
2023-04-19T20:58:57.624Z,56.8
2023-04-19T21:04:44.005Z,57.8
2023-04-19T21:10:50.599Z,59.9
2023-04-19T21:16:26.219Z,59.2
2023-04-19T21:22:03.770Z,60.3
2023-04-19T21:27:42.484Z,59.6
2023-04-19T21:33:18.643Z,61.5
2023-04-19T21:38:53.918Z,63.1
